Ana Sayfa
METAR-TAF:

METAR-TAF

Havaalanları :

Gage, Oklahoma, Amerika Birleşik Devletleri

Enlem: 36-17-48N, Boylam: 099-46-08W, yükseklik: 677 m

Güncel hava durumu gözlemi

Rapor saat 18:53 UTC de 28 dakika önce yapıldı.
Rüzgar kuzeydan 14 kt
Sıcaklık 8°C
Nem 71%
Basınç 1010 hPa
Görüş mesafesi: 16.1 km
1800 ft yükseklikte çok bulutlu

METAR: KGAG 241853Z AUTO 35014KT 10SM OVC018 08/03 A2983 RMK AO2 SLP099 T00830028

Saat: 13:21 (19:21 UTC)


TAF: eksik

4.000'den fazla havaalanı için hava durumu gözlemleri ve tahminleri (METAR ve TAF raporları).

Kullanılabilir istasyonlar harita üzerinde sarı ve kırmızı noktalarla gösterilir.

İstasyonun adını görmek için fareyi noktanın üzerinde gezdirin.

Sonrasında hava gözlem ve tahminlerini görmek için tıklayın.

Haritayı değiştirmek için: yaklaştırmak için siyah artı işaretli yeşil düğmeye ve uzaklaştırmak için de eksi işaretli düğmeye hızla tıklayın; bitişik haritalar için yeşil okları kullanın.


METAR-TAF: